Windsor, North Dakota
Current Conditions -  °F | °C
As of 2:44 PM on Monday 22 Dec 2014 (Local Time) from KJMS Reporting Station
Light Snow Light Snow  
Wind Chill: 26°   Ceiling: 300
Heat Index: 34°   Visibility: 1mi
Dew Point: 33°   Wind: 10mph
Humidity: 96%   Direction: 40°NE
Pressure: 29.47"   Gusts: NA
Location:  46.8919°N, 99.0696°W
Report Text: KJMS 222044Z AUTO 04009KT 1SM -SN BR OVC003 01/01 A2947 RMK AO2 UPB32E39SNE25B39 P0001 T00110006
Loading
Personal Weather Stations






























Interactive Weather Map New forecast layout! Learn more

10-Day Weather Forecast

Advertisements
Track Severe Weather on mobile